KOCW/OCW METAR and TAF weather

Enter ICAO airport designator
Station Type Date Time Source
KOCW METAR 2021/09/23 18:15 UTC NOAA

KOCW 231815Z AUTO 34004KT 5SM -RA BKN010 OVC026 19/17 A2991 RMK AO2 P0005 T01850167


Station Type Date Time Source
KOCW Decoded METAR 2021/09/23 18:15 UTC NOAA

Washington, Warren Field Airport, NC, United States (KOCW) 35-34-14N 077-02-59W
Sep 23, 2021 - 02:15 PM EDT / 2021.09.23 1815 UTC
Wind: from the NNW (340 degrees) at 5 MPH (4 KT):0
Visibility: 5 mile(s):0
Sky conditions: overcast
Weather: light rain
Precipitation last hour: 0.05 inches
Temperature: 65.3 F (18.5 C)
Dew Point: 62.1 F (16.7 C)
Relative Humidity: 89%
Pressure (altimeter): 29.91 in. Hg (1012 hPa)
ob: KOCW 231815Z AUTO 34004KT 5SM -RA BKN010 OVC026 19/17 A2991 RMK AO2 P0005 T01850167
cycle: 18

Station Type Date Time Source
KOCW TAF UTC NOAA

Error!

Example: see airport list